sensor_id;sensor_type;location;lat;lon;timestamp;P1;durP1;ratioP1;P2;durP2;ratioP2
77105;SDS011;66057;54.718;18.426;2023-12-04T00:01:21;0.10;;;0.10;;
77105;SDS011;66057;54.718;18.426;2023-12-04T00:03:46;0.20;;;0.20;;
77105;SDS011;66057;54.718;18.426;2023-12-04T00:06:12;0.10;;;0.10;;
77105;SDS011;66057;54.718;18.426;2023-12-04T00:08:38;0.10;;;0.10;;
77105;SDS011;66057;54.718;18.426;2023-12-04T00:11:05;0.20;;;0.20;;
77105;SDS011;66057;54.718;18.426;2023-12-04T00:13:31;0.20;;;0.20;;
77105;SDS011;66057;54.718;18.426;2023-12-04T00:15:57;0.30;;;0.30;;
77105;SDS011;66057;54.718;18.426;2023-12-04T00:18:22;0.10;;;0.10;;
77105;SDS011;66057;54.718;18.426;2023-12-04T00:20:48;0.30;;;0.30;;
77105;SDS011;66057;54.718;18.426;2023-12-04T00:23:14;0.00;;;0.00;;
77105;SDS011;66057;54.718;18.426;2023-12-04T00:25:39;0.17;;;0.17;;
77105;SDS011;66057;54.718;18.426;2023-12-04T00:28:05;0.17;;;0.17;;
77105;SDS011;66057;54.718;18.426;2023-12-04T00:30:31;0.22;;;0.22;;
77105;SDS011;66057;54.718;18.426;2023-12-04T00:32:56;0.20;;;0.20;;
77105;SDS011;66057;54.718;18.426;2023-12-04T00:35:22;0.40;;;0.40;;
77105;SDS011;66057;54.718;18.426;2023-12-04T00:37:47;0.25;;;0.25;;
77105;SDS011;66057;54.718;18.426;2023-12-04T00:40:13;0.10;;;0.10;;
77105;SDS011;66057;54.718;18.426;2023-12-04T00:42:39;0.00;;;0.00;;
77105;SDS011;66057;54.718;18.426;2023-12-04T00:45:04;0.20;;;0.20;;
77105;SDS011;66057;54.718;18.426;2023-12-04T00:47:30;0.32;;;0.32;;
77105;SDS011;66057;54.718;18.426;2023-12-04T00:49:56;0.20;;;0.20;;
77105;SDS011;66057;54.718;18.426;2023-12-04T00:52:21;0.30;;;0.30;;
77105;SDS011;66057;54.718;18.426;2023-12-04T00:54:47;0.15;;;0.15;;
77105;SDS011;66057;54.718;18.426;2023-12-04T00:57:12;0.20;;;0.20;;
77105;SDS011;66057;54.718;18.426;2023-12-04T00:59:38;0.20;;;0.20;;
77105;SDS011;66057;54.718;18.426;2023-12-04T01:02:05;0.30;;;0.30;;
77105;SDS011;66057;54.718;18.426;2023-12-04T01:04:30;0.30;;;0.30;;
77105;SDS011;66057;54.718;18.426;2023-12-04T01:06:56;0.28;;;0.28;;
77105;SDS011;66057;54.718;18.426;2023-12-04T01:09:22;0.20;;;0.20;;
77105;SDS011;66057;54.718;18.426;2023-12-04T01:11:53;0.22;;;0.22;;
77105;SDS011;66057;54.718;18.426;2023-12-04T01:14:19;0.25;;;0.25;;
77105;SDS011;66057;54.718;18.426;2023-12-04T01:16:45;0.20;;;0.20;;
77105;SDS011;66057;54.718;18.426;2023-12-04T01:19:10;0.30;;;0.30;;
77105;SDS011;66057;54.718;18.426;2023-12-04T01:21:36;0.20;;;0.20;;
77105;SDS011;66057;54.718;18.426;2023-12-04T01:24:01;0.20;;;0.20;;
77105;SDS011;66057;54.718;18.426;2023-12-04T01:26:27;0.52;;;0.52;;
77105;SDS011;66057;54.718;18.426;2023-12-04T01:28:52;0.47;;;0.47;;
77105;SDS011;66057;54.718;18.426;2023-12-04T01:31:18;0.22;;;0.22;;
77105;SDS011;66057;54.718;18.426;2023-12-04T01:33:43;0.20;;;0.20;;
77105;SDS011;66057;54.718;18.426;2023-12-04T01:36:09;0.20;;;0.20;;
77105;SDS011;66057;54.718;18.426;2023-12-04T01:38:36;0.10;;;0.10;;
77105;SDS011;66057;54.718;18.426;2023-12-04T01:41:02;0.10;;;0.10;;
77105;SDS011;66057;54.718;18.426;2023-12-04T01:43:28;0.30;;;0.30;;
77105;SDS011;66057;54.718;18.426;2023-12-04T01:45:54;0.25;;;0.25;;
77105;SDS011;66057;54.718;18.426;2023-12-04T01:48:20;0.20;;;0.20;;
77105;SDS011;66057;54.718;18.426;2023-12-04T01:50:45;0.20;;;0.20;;
77105;SDS011;66057;54.718;18.426;2023-12-04T01:53:11;0.35;;;0.35;;
77105;SDS011;66057;54.718;18.426;2023-12-04T01:55:37;0.30;;;0.30;;
77105;SDS011;66057;54.718;18.426;2023-12-04T01:58:03;0.03;;;0.03;;
77105;SDS011;66057;54.718;18.426;2023-12-04T02:00:32;0.40;;;0.40;;
77105;SDS011;66057;54.718;18.426;2023-12-04T02:02:58;0.20;;;0.20;;
77105;SDS011;66057;54.718;18.426;2023-12-04T02:05:26;0.20;;;0.20;;
77105;SDS011;66057;54.718;18.426;2023-12-04T02:07:52;0.30;;;0.30;;
77105;SDS011;66057;54.718;18.426;2023-12-04T02:10:18;0.30;;;0.30;;
77105;SDS011;66057;54.718;18.426;2023-12-04T02:12:43;0.30;;;0.30;;
77105;SDS011;66057;54.718;18.426;2023-12-04T02:15:09;0.30;;;0.30;;
77105;SDS011;66057;54.718;18.426;2023-12-04T02:17:35;0.25;;;0.25;;
77105;SDS011;66057;54.718;18.426;2023-12-04T02:20:02;0.20;;;0.20;;
77105;SDS011;66057;54.718;18.426;2023-12-04T02:22:28;0.13;;;0.13;;
77105;SDS011;66057;54.718;18.426;2023-12-04T02:24:54;0.03;;;0.03;;
77105;SDS011;66057;54.718;18.426;2023-12-04T02:27:25;0.20;;;0.20;;
77105;SDS011;66057;54.718;18.426;2023-12-04T02:29:52;0.17;;;0.17;;
77105;SDS011;66057;54.718;18.426;2023-12-04T02:32:18;0.28;;;0.28;;
77105;SDS011;66057;54.718;18.426;2023-12-04T02:34:45;0.20;;;0.20;;
77105;SDS011;66057;54.718;18.426;2023-12-04T02:37:12;0.20;;;0.20;;
77105;SDS011;66057;54.718;18.426;2023-12-04T02:39:41;0.20;;;0.20;;
77105;SDS011;66057;54.718;18.426;2023-12-04T02:42:08;0.20;;;0.20;;
77105;SDS011;66057;54.718;18.426;2023-12-04T02:44:33;0.20;;;0.20;;
77105;SDS011;66057;54.718;18.426;2023-12-04T02:46:59;0.20;;;0.20;;
77105;SDS011;66057;54.718;18.426;2023-12-04T02:49:24;0.22;;;0.22;;
77105;SDS011;66057;54.718;18.426;2023-12-04T02:51:50;0.20;;;0.20;;
77105;SDS011;66057;54.718;18.426;2023-12-04T02:54:16;0.30;;;0.30;;
77105;SDS011;66057;54.718;18.426;2023-12-04T02:56:41;0.20;;;0.20;;
77105;SDS011;66057;54.718;18.426;2023-12-04T02:59:07;0.20;;;0.20;;
77105;SDS011;66057;54.718;18.426;2023-12-04T03:01:32;0.30;;;0.30;;
77105;SDS011;66057;54.718;18.426;2023-12-04T03:03:58;0.15;;;0.15;;
77105;SDS011;66057;54.718;18.426;2023-12-04T03:06:23;0.20;;;0.20;;
77105;SDS011;66057;54.718;18.426;2023-12-04T03:08:49;0.20;;;0.20;;
77105;SDS011;66057;54.718;18.426;2023-12-04T03:11:14;0.20;;;0.20;;
77105;SDS011;66057;54.718;18.426;2023-12-04T03:13:40;0.20;;;0.20;;
77105;SDS011;66057;54.718;18.426;2023-12-04T03:16:06;0.20;;;0.20;;
77105;SDS011;66057;54.718;18.426;2023-12-04T03:18:31;0.22;;;0.22;;
77105;SDS011;66057;54.718;18.426;2023-12-04T03:20:57;0.20;;;0.20;;
77105;SDS011;66057;54.718;18.426;2023-12-04T03:23:22;0.15;;;0.15;;
77105;SDS011;66057;54.718;18.426;2023-12-04T03:25:48;0.25;;;0.25;;
77105;SDS011;66057;54.718;18.426;2023-12-04T03:28:13;0.38;;;0.38;;
77105;SDS011;66057;54.718;18.426;2023-12-04T03:30:41;0.22;;;0.22;;
77105;SDS011;66057;54.718;18.426;2023-12-04T03:33:09;0.30;;;0.30;;
77105;SDS011;66057;54.718;18.426;2023-12-04T03:35:34;0.30;;;0.30;;
77105;SDS011;66057;54.718;18.426;2023-12-04T03:38:00;0.20;;;0.20;;
77105;SDS011;66057;54.718;18.426;2023-12-04T03:40:25;0.00;;;0.00;;
77105;SDS011;66057;54.718;18.426;2023-12-04T03:42:51;0.03;;;0.03;;
77105;SDS011;66057;54.718;18.426;2023-12-04T03:45:16;0.20;;;0.20;;
77105;SDS011;66057;54.718;18.426;2023-12-04T03:47:42;0.03;;;0.03;;
77105;SDS011;66057;54.718;18.426;2023-12-04T03:50:08;0.40;;;0.40;;
77105;SDS011;66057;54.718;18.426;2023-12-04T03:52:33;0.20;;;0.20;;
77105;SDS011;66057;54.718;18.426;2023-12-04T03:54:59;0.28;;;0.28;;
77105;SDS011;66057;54.718;18.426;2023-12-04T03:57:24;0.20;;;0.20;;
77105;SDS011;66057;54.718;18.426;2023-12-04T03:59:50;0.30;;;0.30;;
77105;SDS011;66057;54.718;18.426;2023-12-04T04:02:16;0.13;;;0.13;;
77105;SDS011;66057;54.718;18.426;2023-12-04T04:04:41;0.03;;;0.03;;
77105;SDS011;66057;54.718;18.426;2023-12-04T04:07:07;0.17;;;0.17;;
77105;SDS011;66057;54.718;18.426;2023-12-04T04:09:32;0.45;;;0.45;;
77105;SDS011;66057;54.718;18.426;2023-12-04T04:11:58;0.10;;;0.10;;
77105;SDS011;66057;54.718;18.426;2023-12-04T04:14:24;0.10;;;0.10;;
77105;SDS011;66057;54.718;18.426;2023-12-04T04:16:50;0.10;;;0.10;;
77105;SDS011;66057;54.718;18.426;2023-12-04T04:19:15;0.20;;;0.20;;
77105;SDS011;66057;54.718;18.426;2023-12-04T04:21:41;0.38;;;0.38;;
77105;SDS011;66057;54.718;18.426;2023-12-04T04:24:06;0.30;;;0.30;;
77105;SDS011;66057;54.718;18.426;2023-12-04T04:26:32;0.30;;;0.30;;
77105;SDS011;66057;54.718;18.426;2023-12-04T04:28:58;0.10;;;0.10;;
77105;SDS011;66057;54.718;18.426;2023-12-04T04:31:24;0.20;;;0.20;;
77105;SDS011;66057;54.718;18.426;2023-12-04T04:33:50;0.28;;;0.28;;
77105;SDS011;66057;54.718;18.426;2023-12-04T04:36:15;0.28;;;0.28;;
77105;SDS011;66057;54.718;18.426;2023-12-04T04:38:41;0.03;;;0.03;;
77105;SDS011;66057;54.718;18.426;2023-12-04T04:41:06;0.00;;;0.00;;
77105;SDS011;66057;54.718;18.426;2023-12-04T04:43:32;0.30;;;0.30;;
77105;SDS011;66057;54.718;18.426;2023-12-04T04:45:59;0.50;;;0.50;;
77105;SDS011;66057;54.718;18.426;2023-12-04T04:48:24;0.20;;;0.20;;
77105;SDS011;66057;54.718;18.426;2023-12-04T04:50:50;0.30;;;0.30;;
77105;SDS011;66057;54.718;18.426;2023-12-04T04:53:15;0.40;;;0.40;;
77105;SDS011;66057;54.718;18.426;2023-12-04T04:55:41;0.20;;;0.20;;
77105;SDS011;66057;54.718;18.426;2023-12-04T04:58:06;0.17;;;0.17;;
77105;SDS011;66057;54.718;18.426;2023-12-04T05:00:32;0.30;;;0.30;;
77105;SDS011;66057;54.718;18.426;2023-12-04T05:02:57;0.10;;;0.10;;
77105;SDS011;66057;54.718;18.426;2023-12-04T05:05:23;0.17;;;0.17;;
77105;SDS011;66057;54.718;18.426;2023-12-04T05:07:49;0.20;;;0.20;;
77105;SDS011;66057;54.718;18.426;2023-12-04T05:10:14;0.20;;;0.20;;
77105;SDS011;66057;54.718;18.426;2023-12-04T05:12:40;0.40;;;0.40;;
77105;SDS011;66057;54.718;18.426;2023-12-04T05:15:06;0.20;;;0.20;;
77105;SDS011;66057;54.718;18.426;2023-12-04T05:17:31;0.17;;;0.17;;
77105;SDS011;66057;54.718;18.426;2023-12-04T05:19:57;0.30;;;0.30;;
77105;SDS011;66057;54.718;18.426;2023-12-04T05:22:22;0.30;;;0.30;;
77105;SDS011;66057;54.718;18.426;2023-12-04T05:24:48;0.30;;;0.30;;
77105;SDS011;66057;54.718;18.426;2023-12-04T05:27:14;0.30;;;0.30;;
77105;SDS011;66057;54.718;18.426;2023-12-04T05:29:39;0.45;;;0.45;;
77105;SDS011;66057;54.718;18.426;2023-12-04T05:32:05;0.20;;;0.20;;
77105;SDS011;66057;54.718;18.426;2023-12-04T05:34:31;0.00;;;0.00;;
77105;SDS011;66057;54.718;18.426;2023-12-04T05:36:57;0.30;;;0.30;;
77105;SDS011;66057;54.718;18.426;2023-12-04T05:39:22;0.30;;;0.30;;
77105;SDS011;66057;54.718;18.426;2023-12-04T05:41:48;0.20;;;0.20;;
77105;SDS011;66057;54.718;18.426;2023-12-04T05:44:13;0.22;;;0.22;;
77105;SDS011;66057;54.718;18.426;2023-12-04T05:46:39;0.20;;;0.20;;
77105;SDS011;66057;54.718;18.426;2023-12-04T05:49:05;0.00;;;0.00;;
77105;SDS011;66057;54.718;18.426;2023-12-04T05:51:30;0.20;;;0.20;;
77105;SDS011;66057;54.718;18.426;2023-12-04T05:53:56;0.32;;;0.32;;
77105;SDS011;66057;54.718;18.426;2023-12-04T05:56:21;0.30;;;0.30;;
77105;SDS011;66057;54.718;18.426;2023-12-04T05:58:47;0.30;;;0.30;;
77105;SDS011;66057;54.718;18.426;2023-12-04T06:01:14;0.15;;;0.15;;
77105;SDS011;66057;54.718;18.426;2023-12-04T06:06:06;0.20;;;0.20;;
77105;SDS011;66057;54.718;18.426;2023-12-04T06:08:31;0.20;;;0.20;;
77105;SDS011;66057;54.718;18.426;2023-12-04T06:10:57;0.28;;;0.28;;
77105;SDS011;66057;54.718;18.426;2023-12-04T06:13:23;0.00;;;0.00;;
77105;SDS011;66057;54.718;18.426;2023-12-04T06:15:48;0.30;;;0.30;;
77105;SDS011;66057;54.718;18.426;2023-12-04T06:18:15;1.15;;;1.15;;
77105;SDS011;66057;54.718;18.426;2023-12-04T06:20:40;0.00;;;0.00;;
77105;SDS011;66057;54.718;18.426;2023-12-04T06:23:06;0.20;;;0.20;;
77105;SDS011;66057;54.718;18.426;2023-12-04T06:25:31;0.40;;;0.40;;
77105;SDS011;66057;54.718;18.426;2023-12-04T06:27:57;0.00;;;0.00;;
77105;SDS011;66057;54.718;18.426;2023-12-04T06:30:23;0.10;;;0.10;;
77105;SDS011;66057;54.718;18.426;2023-12-04T06:32:49;0.40;;;0.40;;
77105;SDS011;66057;54.718;18.426;2023-12-04T06:35:14;0.00;;;0.00;;
77105;SDS011;66057;54.718;18.426;2023-12-04T06:37:40;0.30;;;0.30;;
77105;SDS011;66057;54.718;18.426;2023-12-04T06:40:06;0.25;;;0.25;;
77105;SDS011;66057;54.718;18.426;2023-12-04T06:42:34;0.30;;;0.30;;
77105;SDS011;66057;54.718;18.426;2023-12-04T06:45:00;0.20;;;0.20;;
77105;SDS011;66057;54.718;18.426;2023-12-04T06:47:26;0.25;;;0.25;;
77105;SDS011;66057;54.718;18.426;2023-12-04T06:49:53;0.20;;;0.20;;
77105;SDS011;66057;54.718;18.426;2023-12-04T06:52:19;0.20;;;0.20;;
77105;SDS011;66057;54.718;18.426;2023-12-04T06:54:45;0.30;;;0.30;;
77105;SDS011;66057;54.718;18.426;2023-12-04T06:57:11;0.22;;;0.22;;
77105;SDS011;66057;54.718;18.426;2023-12-04T06:59:37;0.20;;;0.20;;
77105;SDS011;66057;54.718;18.426;2023-12-04T07:02:03;0.28;;;0.28;;
77105;SDS011;66057;54.718;18.426;2023-12-04T07:04:30;0.10;;;0.10;;
77105;SDS011;66057;54.718;18.426;2023-12-04T07:06:56;0.20;;;0.20;;
77105;SDS011;66057;54.718;18.426;2023-12-04T07:09:23;0.30;;;0.30;;
77105;SDS011;66057;54.718;18.426;2023-12-04T07:11:49;0.32;;;0.32;;
77105;SDS011;66057;54.718;18.426;2023-12-04T07:14:14;0.30;;;0.30;;
77105;SDS011;66057;54.718;18.426;2023-12-04T07:16:41;0.17;;;0.17;;
77105;SDS011;66057;54.718;18.426;2023-12-04T07:19:07;0.28;;;0.28;;
77105;SDS011;66057;54.718;18.426;2023-12-04T07:21:33;0.25;;;0.25;;
77105;SDS011;66057;54.718;18.426;2023-12-04T07:23:59;0.35;;;0.35;;
77105;SDS011;66057;54.718;18.426;2023-12-04T07:26:57;0.40;;;0.40;;
77105;SDS011;66057;54.718;18.426;2023-12-04T07:29:26;0.20;;;0.20;;
77105;SDS011;66057;54.718;18.426;2023-12-04T07:31:59;0.20;;;0.20;;
77105;SDS011;66057;54.718;18.426;2023-12-04T07:34:27;0.00;;;0.00;;
77105;SDS011;66057;54.718;18.426;2023-12-04T07:36:59;0.15;;;0.15;;
77105;SDS011;66057;54.718;18.426;2023-12-04T07:39:27;0.00;;;0.00;;
77105;SDS011;66057;54.718;18.426;2023-12-04T07:41:53;0.30;;;0.30;;
77105;SDS011;66057;54.718;18.426;2023-12-04T07:44:20;0.20;;;0.20;;
77105;SDS011;66057;54.718;18.426;2023-12-04T07:46:49;0.25;;;0.25;;
77105;SDS011;66057;54.718;18.426;2023-12-04T07:49:16;0.28;;;0.28;;
77105;SDS011;66057;54.718;18.426;2023-12-04T07:51:42;0.00;;;0.00;;
77105;SDS011;66057;54.718;18.426;2023-12-04T07:54:07;0.20;;;0.20;;
77105;SDS011;66057;54.718;18.426;2023-12-04T07:56:34;0.20;;;0.20;;
77105;SDS011;66057;54.718;18.426;2023-12-04T07:59:00;0.00;;;0.00;;
77105;SDS011;66057;54.718;18.426;2023-12-04T08:01:32;0.20;;;0.20;;
77105;SDS011;66057;54.718;18.426;2023-12-04T08:03:59;0.00;;;0.00;;
77105;SDS011;66057;54.718;18.426;2023-12-04T08:06:25;10.07;;;9.75;;
77105;SDS011;66057;54.718;18.426;2023-12-04T08:08:51;0.20;;;0.20;;
77105;SDS011;66057;54.718;18.426;2023-12-04T08:11:18;0.20;;;0.20;;
77105;SDS011;66057;54.718;18.426;2023-12-04T08:13:43;0.00;;;0.00;;
77105;SDS011;66057;54.718;18.426;2023-12-04T08:16:13;0.00;;;0.00;;
77105;SDS011;66057;54.718;18.426;2023-12-04T08:18:39;0.30;;;0.30;;
77105;SDS011;66057;54.718;18.426;2023-12-04T08:21:07;0.30;;;0.30;;
77105;SDS011;66057;54.718;18.426;2023-12-04T08:23:34;0.30;;;0.30;;
77105;SDS011;66057;54.718;18.426;2023-12-04T08:26:01;0.00;;;0.00;;
77105;SDS011;66057;54.718;18.426;2023-12-04T08:28:33;0.30;;;0.30;;
77105;SDS011;66057;54.718;18.426;2023-12-04T08:31:25;0.40;;;0.40;;
77105;SDS011;66057;54.718;18.426;2023-12-04T08:33:51;0.20;;;0.20;;
77105;SDS011;66057;54.718;18.426;2023-12-04T08:36:35;0.17;;;0.17;;
77105;SDS011;66057;54.718;18.426;2023-12-04T08:39:01;0.00;;;0.00;;
77105;SDS011;66057;54.718;18.426;2023-12-04T08:41:39;0.00;;;0.00;;
77105;SDS011;66057;54.718;18.426;2023-12-04T08:44:06;0.20;;;0.20;;
77105;SDS011;66057;54.718;18.426;2023-12-04T08:46:43;0.10;;;0.10;;
77105;SDS011;66057;54.718;18.426;2023-12-04T08:49:11;0.20;;;0.20;;
77105;SDS011;66057;54.718;18.426;2023-12-04T08:51:39;0.20;;;0.20;;
77105;SDS011;66057;54.718;18.426;2023-12-04T08:54:18;0.30;;;0.30;;
77105;SDS011;66057;54.718;18.426;2023-12-04T08:56:44;0.17;;;0.17;;
77105;SDS011;66057;54.718;18.426;2023-12-04T08:59:10;0.30;;;0.30;;
77105;SDS011;66057;54.718;18.426;2023-12-04T09:01:36;0.30;;;0.30;;
77105;SDS011;66057;54.718;18.426;2023-12-04T09:04:03;0.30;;;0.30;;
77105;SDS011;66057;54.718;18.426;2023-12-04T09:06:37;0.20;;;0.20;;
77105;SDS011;66057;54.718;18.426;2023-12-04T09:09:03;0.40;;;0.40;;
77105;SDS011;66057;54.718;18.426;2023-12-04T09:11:30;0.30;;;0.30;;
77105;SDS011;66057;54.718;18.426;2023-12-04T09:13:56;0.10;;;0.10;;
77105;SDS011;66057;54.718;18.426;2023-12-04T09:18:52;0.20;;;0.20;;
77105;SDS011;66057;54.718;18.426;2023-12-04T09:21:19;0.20;;;0.20;;
77105;SDS011;66057;54.718;18.426;2023-12-04T09:23:45;0.00;;;0.00;;
77105;SDS011;66057;54.718;18.426;2023-12-04T09:26:16;0.28;;;0.28;;
77105;SDS011;66057;54.718;18.426;2023-12-04T09:28:42;0.00;;;0.00;;
77105;SDS011;66057;54.718;18.426;2023-12-04T09:31:08;0.20;;;0.20;;
77105;SDS011;66057;54.718;18.426;2023-12-04T09:33:33;0.20;;;0.20;;
77105;SDS011;66057;54.718;18.426;2023-12-04T09:36:01;0.25;;;0.25;;
77105;SDS011;66057;54.718;18.426;2023-12-04T09:38:28;0.20;;;0.20;;
77105;SDS011;66057;54.718;18.426;2023-12-04T09:40:58;0.30;;;0.30;;
77105;SDS011;66057;54.718;18.426;2023-12-04T09:43:24;0.28;;;0.28;;
77105;SDS011;66057;54.718;18.426;2023-12-04T09:45:50;0.20;;;0.20;;
77105;SDS011;66057;54.718;18.426;2023-12-04T09:48:16;0.00;;;0.00;;
77105;SDS011;66057;54.718;18.426;2023-12-04T09:50:43;0.00;;;0.00;;
77105;SDS011;66057;54.718;18.426;2023-12-04T09:53:10;0.15;;;0.15;;
77105;SDS011;66057;54.718;18.426;2023-12-04T09:55:42;0.20;;;0.20;;
77105;SDS011;66057;54.718;18.426;2023-12-04T09:58:08;0.30;;;0.30;;
77105;SDS011;66057;54.718;18.426;2023-12-04T10:00:37;0.20;;;0.20;;
77105;SDS011;66057;54.718;18.426;2023-12-04T10:03:05;0.13;;;0.13;;
77105;SDS011;66057;54.718;18.426;2023-12-04T10:05:35;5.72;;;5.57;;
77105;SDS011;66057;54.718;18.426;2023-12-04T10:08:03;0.10;;;0.10;;
77105;SDS011;66057;54.718;18.426;2023-12-04T10:10:39;0.20;;;0.20;;
77105;SDS011;66057;54.718;18.426;2023-12-04T10:13:06;0.30;;;0.30;;
77105;SDS011;66057;54.718;18.426;2023-12-04T10:15:49;0.10;;;0.10;;
77105;SDS011;66057;54.718;18.426;2023-12-04T10:18:28;0.10;;;0.10;;
77105;SDS011;66057;54.718;18.426;2023-12-04T10:20:56;0.10;;;0.10;;
77105;SDS011;66057;54.718;18.426;2023-12-04T10:23:22;0.30;;;0.30;;
77105;SDS011;66057;54.718;18.426;2023-12-04T10:25:50;0.30;;;0.30;;
77105;SDS011;66057;54.718;18.426;2023-12-04T10:28:16;0.32;;;0.32;;
77105;SDS011;66057;54.718;18.426;2023-12-04T10:30:44;0.10;;;0.10;;
77105;SDS011;66057;54.718;18.426;2023-12-04T10:33:11;0.20;;;0.20;;
77105;SDS011;66057;54.718;18.426;2023-12-04T10:35:39;0.20;;;0.20;;
77105;SDS011;66057;54.718;18.426;2023-12-04T10:38:07;1.17;;;1.17;;
77105;SDS011;66057;54.718;18.426;2023-12-04T10:40:38;0.03;;;0.03;;
77105;SDS011;66057;54.718;18.426;2023-12-04T10:45:35;2.70;;;2.65;;
77105;SDS011;66057;54.718;18.426;2023-12-04T10:48:13;0.10;;;0.10;;
77105;SDS011;66057;54.718;18.426;2023-12-04T10:50:42;0.28;;;0.28;;
77105;SDS011;66057;54.718;18.426;2023-12-04T10:53:09;0.30;;;0.30;;
77105;SDS011;66057;54.718;18.426;2023-12-04T10:55:52;0.30;;;0.30;;
77105;SDS011;66057;54.718;18.426;2023-12-04T10:58:21;0.00;;;0.00;;
77105;SDS011;66057;54.718;18.426;2023-12-04T11:00:52;0.15;;;0.15;;
77105;SDS011;66057;54.718;18.426;2023-12-04T11:03:25;0.20;;;0.20;;
77105;SDS011;66057;54.718;18.426;2023-12-04T11:05:59;0.43;;;0.43;;
77105;SDS011;66057;54.718;18.426;2023-12-04T11:08:28;0.20;;;0.20;;
77105;SDS011;66057;54.718;18.426;2023-12-04T11:11:06;0.20;;;0.20;;
77105;SDS011;66057;54.718;18.426;2023-12-04T11:13:41;0.20;;;0.20;;
77105;SDS011;66057;54.718;18.426;2023-12-04T11:18:53;0.30;;;0.30;;
77105;SDS011;66057;54.718;18.426;2023-12-04T11:21:24;0.20;;;0.20;;
77105;SDS011;66057;54.718;18.426;2023-12-04T11:23:56;0.20;;;0.20;;
77105;SDS011;66057;54.718;18.426;2023-12-04T11:26:24;0.20;;;0.20;;
77105;SDS011;66057;54.718;18.426;2023-12-04T11:28:51;0.00;;;0.00;;
77105;SDS011;66057;54.718;18.426;2023-12-04T11:31:17;0.25;;;0.25;;
77105;SDS011;66057;54.718;18.426;2023-12-04T11:33:43;0.10;;;0.10;;
77105;SDS011;66057;54.718;18.426;2023-12-04T11:36:12;0.20;;;0.20;;
77105;SDS011;66057;54.718;18.426;2023-12-04T11:38:44;0.30;;;0.30;;
77105;SDS011;66057;54.718;18.426;2023-12-04T11:41:18;0.20;;;0.20;;
77105;SDS011;66057;54.718;18.426;2023-12-04T11:43:46;0.28;;;0.28;;
77105;SDS011;66057;54.718;18.426;2023-12-04T11:46:25;0.55;;;0.55;;
77105;SDS011;66057;54.718;18.426;2023-12-04T11:48:54;0.20;;;0.20;;
77105;SDS011;66057;54.718;18.426;2023-12-04T11:54:26;0.20;;;0.20;;
77105;SDS011;66057;54.718;18.426;2023-12-04T11:59:28;0.20;;;0.20;;
77105;SDS011;66057;54.718;18.426;2023-12-04T12:01:54;0.17;;;0.17;;
77105;SDS011;66057;54.718;18.426;2023-12-04T12:04:25;0.20;;;0.20;;
77105;SDS011;66057;54.718;18.426;2023-12-04T12:06:50;0.20;;;0.20;;
77105;SDS011;66057;54.718;18.426;2023-12-04T12:09:18;0.10;;;0.10;;
77105;SDS011;66057;54.718;18.426;2023-12-04T12:11:44;0.40;;;0.40;;
77105;SDS011;66057;54.718;18.426;2023-12-04T12:14:10;10.02;;;7.93;;
77105;SDS011;66057;54.718;18.426;2023-12-04T12:16:36;0.17;;;0.17;;
77105;SDS011;66057;54.718;18.426;2023-12-04T12:19:03;0.20;;;0.20;;
77105;SDS011;66057;54.718;18.426;2023-12-04T12:21:28;0.50;;;0.50;;
77105;SDS011;66057;54.718;18.426;2023-12-04T12:23:54;0.20;;;0.20;;
77105;SDS011;66057;54.718;18.426;2023-12-04T12:26:20;0.25;;;0.25;;
77105;SDS011;66057;54.718;18.426;2023-12-04T12:28:46;0.10;;;0.10;;
77105;SDS011;66057;54.718;18.426;2023-12-04T12:31:11;0.15;;;0.15;;
77105;SDS011;66057;54.718;18.426;2023-12-04T12:33:37;0.15;;;0.15;;
77105;SDS011;66057;54.718;18.426;2023-12-04T12:36:03;0.10;;;0.10;;
77105;SDS011;66057;54.718;18.426;2023-12-04T12:38:29;0.20;;;0.20;;
77105;SDS011;66057;54.718;18.426;2023-12-04T12:40:59;0.30;;;0.30;;
77105;SDS011;66057;54.718;18.426;2023-12-04T12:43:27;0.20;;;0.20;;
77105;SDS011;66057;54.718;18.426;2023-12-04T12:45:52;0.20;;;0.20;;
77105;SDS011;66057;54.718;18.426;2023-12-04T12:48:18;0.20;;;0.20;;
77105;SDS011;66057;54.718;18.426;2023-12-04T12:50:45;2.30;;;2.22;;
77105;SDS011;66057;54.718;18.426;2023-12-04T12:53:11;8.68;;;8.27;;
77105;SDS011;66057;54.718;18.426;2023-12-04T12:55:38;0.20;;;0.20;;
77105;SDS011;66057;54.718;18.426;2023-12-04T12:58:04;0.10;;;0.10;;
77105;SDS011;66057;54.718;18.426;2023-12-04T13:00:32;0.20;;;0.20;;
77105;SDS011;66057;54.718;18.426;2023-12-04T13:03:01;0.20;;;0.20;;
77105;SDS011;66057;54.718;18.426;2023-12-04T13:05:27;0.63;;;0.63;;
77105;SDS011;66057;54.718;18.426;2023-12-04T13:07:55;9.50;;;5.03;;
77105;SDS011;66057;54.718;18.426;2023-12-04T13:10:22;10.68;;;6.75;;
77105;SDS011;66057;54.718;18.426;2023-12-04T13:12:50;16.20;;;10.82;;
77105;SDS011;66057;54.718;18.426;2023-12-04T13:15:18;11.93;;;7.35;;
77105;SDS011;66057;54.718;18.426;2023-12-04T13:17:45;13.07;;;7.45;;
77105;SDS011;66057;54.718;18.426;2023-12-04T13:20:10;19.70;;;10.05;;
77105;SDS011;66057;54.718;18.426;2023-12-04T13:22:39;8.35;;;4.00;;
77105;SDS011;66057;54.718;18.426;2023-12-04T13:25:04;22.23;;;9.48;;
77105;SDS011;66057;54.718;18.426;2023-12-04T13:27:33;11.77;;;8.25;;
77105;SDS011;66057;54.718;18.426;2023-12-04T13:29:58;17.10;;;8.65;;
77105;SDS011;66057;54.718;18.426;2023-12-04T13:32:24;19.70;;;9.80;;
77105;SDS011;66057;54.718;18.426;2023-12-04T13:34:50;14.20;;;10.27;;
77105;SDS011;66057;54.718;18.426;2023-12-04T13:37:15;21.67;;;9.68;;
77105;SDS011;66057;54.718;18.426;2023-12-04T13:39:41;16.95;;;7.13;;
77105;SDS011;66057;54.718;18.426;2023-12-04T13:42:23;10.32;;;6.35;;
77105;SDS011;66057;54.718;18.426;2023-12-04T13:45:07;12.77;;;7.78;;
77105;SDS011;66057;54.718;18.426;2023-12-04T13:47:35;16.08;;;6.90;;
77105;SDS011;66057;54.718;18.426;2023-12-04T13:50:01;15.85;;;8.13;;
77105;SDS011;66057;54.718;18.426;2023-12-04T13:52:27;5.90;;;4.65;;
77105;SDS011;66057;54.718;18.426;2023-12-04T13:54:58;16.02;;;8.20;;
77105;SDS011;66057;54.718;18.426;2023-12-04T13:57:23;12.20;;;7.53;;
77105;SDS011;66057;54.718;18.426;2023-12-04T14:00:01;14.18;;;7.43;;
77105;SDS011;66057;54.718;18.426;2023-12-04T14:02:27;19.73;;;7.50;;
77105;SDS011;66057;54.718;18.426;2023-12-04T14:04:53;19.00;;;7.38;;
77105;SDS011;66057;54.718;18.426;2023-12-04T14:07:18;15.27;;;7.75;;
77105;SDS011;66057;54.718;18.426;2023-12-04T14:09:44;19.33;;;8.05;;
77105;SDS011;66057;54.718;18.426;2023-12-04T14:12:13;17.60;;;6.43;;
77105;SDS011;66057;54.718;18.426;2023-12-04T14:14:41;13.45;;;6.60;;
77105;SDS011;66057;54.718;18.426;2023-12-04T14:17:07;10.38;;;5.53;;
77105;SDS011;66057;54.718;18.426;2023-12-04T14:19:34;17.73;;;7.80;;
77105;SDS011;66057;54.718;18.426;2023-12-04T14:21:59;28.27;;;5.47;;
77105;SDS011;66057;54.718;18.426;2023-12-04T14:24:25;17.55;;;9.00;;
77105;SDS011;66057;54.718;18.426;2023-12-04T14:26:51;14.15;;;7.35;;
77105;SDS011;66057;54.718;18.426;2023-12-04T14:29:18;10.48;;;6.30;;
77105;SDS011;66057;54.718;18.426;2023-12-04T14:31:44;13.07;;;7.40;;
77105;SDS011;66057;54.718;18.426;2023-12-04T14:34:10;21.00;;;8.43;;
77105;SDS011;66057;54.718;18.426;2023-12-04T14:36:35;23.80;;;9.40;;
77105;SDS011;66057;54.718;18.426;2023-12-04T14:39:02;24.80;;;9.55;;
77105;SDS011;66057;54.718;18.426;2023-12-04T14:41:28;10.10;;;4.95;;
77105;SDS011;66057;54.718;18.426;2023-12-04T14:43:54;17.80;;;10.45;;
77105;SDS011;66057;54.718;18.426;2023-12-04T14:46:20;26.17;;;10.73;;
77105;SDS011;66057;54.718;18.426;2023-12-04T14:48:45;32.88;;;11.50;;